sensor_id;sensor_type;location;lat;lon;timestamp;pressure;altitude;pressure_sealevel;temperature;humidity
66484;BME280;53299;52.160;7.556;2022-10-24T10:13:27;100207.06;;;20.90;54.87
66484;BME280;53299;52.160;7.556;2022-10-24T10:15:58;100196.19;;;21.19;54.34
66484;BME280;53299;52.160;7.556;2022-10-24T10:18:31;100192.53;;;21.40;53.60
66484;BME280;53299;52.160;7.556;2022-10-24T10:21:06;100197.00;;;21.59;52.92
66484;BME280;53299;52.160;7.556;2022-10-24T10:23:36;100200.25;;;21.74;52.29
66484;BME280;53299;52.160;7.556;2022-10-24T10:28:39;100203.88;;;22.00;51.03
66484;BME280;53299;52.160;7.556;2022-10-24T10:31:07;100204.25;;;22.10;51.01
66484;BME280;53299;52.160;7.556;2022-10-24T10:33:55;100202.97;;;22.19;50.40
66484;BME280;53299;52.160;7.556;2022-10-24T10:44:42;100217.91;;;22.40;49.70
66484;BME280;53299;52.160;7.556;2022-10-24T10:47:14;100217.50;;;22.43;49.58
66484;BME280;53299;52.160;7.556;2022-10-24T10:49:44;100219.50;;;22.48;49.64
66484;BME280;53299;52.160;7.556;2022-10-24T10:52:16;100216.19;;;22.53;49.37
66484;BME280;53299;52.160;7.556;2022-10-24T10:58:04;100218.63;;;22.61;48.93
66484;BME280;53299;52.160;7.556;2022-10-24T11:01:04;100221.06;;;22.62;48.82
66484;BME280;53299;52.160;7.556;2022-10-24T11:12:06;100232.34;;;22.71;48.79
66484;BME280;53299;52.160;7.556;2022-10-24T11:14:48;100231.91;;;22.74;48.94
66484;BME280;53299;52.160;7.556;2022-10-24T11:17:19;100238.69;;;22.77;48.81
66484;BME280;53299;52.160;7.556;2022-10-24T11:22:52;100244.03;;;22.77;48.38
66484;BME280;53299;52.160;7.556;2022-10-24T11:25:26;100249.38;;;22.77;48.87
66484;BME280;53299;52.160;7.556;2022-10-24T11:28:11;100248.13;;;22.79;48.77
66484;BME280;53299;52.160;7.556;2022-10-24T11:30:51;100256.56;;;22.83;48.58
66484;BME280;53299;52.160;7.556;2022-10-24T11:33:22;100255.06;;;22.87;48.59
66484;BME280;53299;52.160;7.556;2022-10-24T11:38:31;100251.75;;;22.92;48.16
66484;BME280;53299;52.160;7.556;2022-10-24T11:49:46;100260.56;;;23.05;47.89
66484;BME280;53299;52.160;7.556;2022-10-24T11:52:25;100247.19;;;23.05;48.03
66484;BME280;53299;52.160;7.556;2022-10-24T11:57:22;100256.63;;;23.08;47.70
66484;BME280;53299;52.160;7.556;2022-10-24T11:59:51;100251.28;;;23.08;47.65
66484;BME280;53299;52.160;7.556;2022-10-24T12:08:12;100273.94;;;23.05;47.69
66484;BME280;53299;52.160;7.556;2022-10-24T12:11:06;100263.22;;;23.05;47.85
66484;BME280;53299;52.160;7.556;2022-10-24T12:19:00;100263.81;;;23.14;47.57
66484;BME280;53299;52.160;7.556;2022-10-24T12:21:34;100265.44;;;23.15;47.64
66484;BME280;53299;52.160;7.556;2022-10-24T12:24:00;100267.66;;;23.18;47.62
66484;BME280;53299;52.160;7.556;2022-10-24T12:26:30;100265.81;;;23.19;47.19
66484;BME280;53299;52.160;7.556;2022-10-24T12:29:05;100262.09;;;23.20;47.34
66484;BME280;53299;52.160;7.556;2022-10-24T12:31:32;100268.47;;;23.19;47.09
66484;BME280;53299;52.160;7.556;2022-10-24T12:39:45;100269.38;;;23.13;47.48
66484;BME280;53299;52.160;7.556;2022-10-24T12:44:41;100280.56;;;23.03;47.42
66484;BME280;53299;52.160;7.556;2022-10-24T13:01:00;100293.81;;;22.46;47.95
66484;BME280;53299;52.160;7.556;2022-10-24T13:03:54;100291.78;;;22.35;48.23
66484;BME280;53299;52.160;7.556;2022-10-24T13:06:35;100286.25;;;22.23;48.43
66484;BME280;53299;52.160;7.556;2022-10-24T13:10:20;100287.47;;;22.14;49.02
66484;BME280;53299;52.160;7.556;2022-10-24T13:17:36;100275.44;;;21.85;49.29
66484;BME280;53299;52.160;7.556;2022-10-24T13:22:39;100273.84;;;21.70;49.93
66484;BME280;53299;52.160;7.556;2022-10-24T13:25:41;100254.72;;;21.60;49.93
66484;BME280;53299;52.160;7.556;2022-10-24T13:30:45;100254.13;;;21.45;50.37
66484;BME280;53299;52.160;7.556;2022-10-24T13:38:40;100256.75;;;21.25;50.82
66484;BME280;53299;52.160;7.556;2022-10-24T13:41:09;100254.91;;;21.19;50.99
66484;BME280;53299;52.160;7.556;2022-10-24T13:43:45;100251.22;;;21.13;51.26
66484;BME280;53299;52.160;7.556;2022-10-24T13:46:21;100260.88;;;21.07;51.30
66484;BME280;53299;52.160;7.556;2022-10-24T13:48:49;100262.47;;;21.02;51.37
66484;BME280;53299;52.160;7.556;2022-10-24T13:51:20;100289.97;;;20.95;51.69
66484;BME280;53299;52.160;7.556;2022-10-24T13:54:00;100293.25;;;20.91;51.77
66484;BME280;53299;52.160;7.556;2022-10-24T13:56:28;100302.66;;;20.87;51.94
66484;BME280;53299;52.160;7.556;2022-10-24T13:58:55;100280.13;;;20.83;51.89
66484;BME280;53299;52.160;7.556;2022-10-24T14:01:26;100277.22;;;20.78;51.98
66484;BME280;53299;52.160;7.556;2022-10-24T14:03:53;100288.28;;;20.74;52.20
66484;BME280;53299;52.160;7.556;2022-10-24T14:06:30;100282.53;;;20.71;52.39
66484;BME280;53299;52.160;7.556;2022-10-24T14:09:00;100286.63;;;20.67;52.55
66484;BME280;53299;52.160;7.556;2022-10-24T14:11:27;100295.84;;;20.64;52.57
66484;BME280;53299;52.160;7.556;2022-10-24T14:13:55;100295.63;;;20.59;52.63
66484;BME280;53299;52.160;7.556;2022-10-24T14:16:30;100299.50;;;20.57;53.00
66484;BME280;53299;52.160;7.556;2022-10-24T14:21:41;100300.25;;;20.50;53.10
66484;BME280;53299;52.160;7.556;2022-10-24T14:24:13;100303.34;;;20.47;53.27
66484;BME280;53299;52.160;7.556;2022-10-24T14:26:39;100303.75;;;20.44;53.20
66484;BME280;53299;52.160;7.556;2022-10-24T14:29:04;100306.81;;;20.41;53.17
66484;BME280;53299;52.160;7.556;2022-10-24T14:31:43;100305.38;;;20.39;53.37
66484;BME280;53299;52.160;7.556;2022-10-24T14:34:19;100311.91;;;20.36;53.47
66484;BME280;53299;52.160;7.556;2022-10-24T14:36:45;100303.28;;;20.34;53.83
66484;BME280;53299;52.160;7.556;2022-10-24T14:39:16;100303.66;;;20.31;53.81
66484;BME280;53299;52.160;7.556;2022-10-24T14:41:42;100310.22;;;20.28;53.97
66484;BME280;53299;52.160;7.556;2022-10-24T14:44:11;100309.41;;;20.28;54.22
66484;BME280;53299;52.160;7.556;2022-10-24T14:46:41;100303.44;;;20.26;54.06
66484;BME280;53299;52.160;7.556;2022-10-24T14:51:53;100312.88;;;20.22;54.17
66484;BME280;53299;52.160;7.556;2022-10-24T14:54:21;100317.56;;;20.20;54.21
66484;BME280;53299;52.160;7.556;2022-10-24T14:56:47;100319.59;;;20.18;54.41
66484;BME280;53299;52.160;7.556;2022-10-24T14:59:36;100324.28;;;20.16;54.38
66484;BME280;53299;52.160;7.556;2022-10-24T15:02:22;100316.69;;;20.13;54.37
66484;BME280;53299;52.160;7.556;2022-10-24T15:04:48;100331.03;;;20.12;54.31
66484;BME280;53299;52.160;7.556;2022-10-24T15:07:36;100333.91;;;20.10;54.51
66484;BME280;53299;52.160;7.556;2022-10-24T15:10:19;100327.94;;;20.08;54.42
66484;BME280;53299;52.160;7.556;2022-10-24T15:12:58;100341.44;;;20.06;54.47
66484;BME280;53299;52.160;7.556;2022-10-24T15:15:31;100341.66;;;20.05;54.39
66484;BME280;53299;52.160;7.556;2022-10-24T15:18:28;100335.69;;;20.03;54.53
66484;BME280;53299;52.160;7.556;2022-10-24T15:21:05;100332.22;;;20.02;54.65
66484;BME280;53299;52.160;7.556;2022-10-24T15:23:33;100335.06;;;20.01;54.63
66484;BME280;53299;52.160;7.556;2022-10-24T15:26:13;100330.94;;;19.98;54.57
66484;BME280;53299;52.160;7.556;2022-10-24T15:28:46;100341.59;;;19.98;54.79
66484;BME280;53299;52.160;7.556;2022-10-24T15:31:13;100340.97;;;19.96;54.85
66484;BME280;53299;52.160;7.556;2022-10-24T15:33:39;100351.84;;;19.95;54.87
66484;BME280;53299;52.160;7.556;2022-10-24T15:36:04;100337.69;;;19.94;54.84
66484;BME280;53299;52.160;7.556;2022-10-24T15:38:30;100336.84;;;19.94;54.90
66484;BME280;53299;52.160;7.556;2022-10-24T15:40:55;100344.03;;;19.93;54.82
66484;BME280;53299;52.160;7.556;2022-10-24T15:43:20;100341.53;;;19.92;54.96
66484;BME280;53299;52.160;7.556;2022-10-24T15:45:46;100341.53;;;19.92;55.09
66484;BME280;53299;52.160;7.556;2022-10-24T15:48:11;100350.56;;;19.91;55.17
66484;BME280;53299;52.160;7.556;2022-10-24T15:50:42;100354.22;;;19.89;54.96
66484;BME280;53299;52.160;7.556;2022-10-24T15:53:14;100357.94;;;19.88;55.04
66484;BME280;53299;52.160;7.556;2022-10-24T15:55:40;100354.44;;;19.88;55.19
66484;BME280;53299;52.160;7.556;2022-10-24T15:58:10;100371.44;;;19.87;55.12
66484;BME280;53299;52.160;7.556;2022-10-24T16:00:36;100370.59;;;19.86;55.07
66484;BME280;53299;52.160;7.556;2022-10-24T16:03:01;100376.97;;;19.85;55.15
66484;BME280;53299;52.160;7.556;2022-10-24T16:05:30;100368.97;;;19.85;55.23
66484;BME280;53299;52.160;7.556;2022-10-24T16:07:58;100380.63;;;19.84;55.36
66484;BME280;53299;52.160;7.556;2022-10-24T16:10:23;100372.84;;;19.83;55.29
66484;BME280;53299;52.160;7.556;2022-10-24T16:12:49;100379.00;;;19.83;55.31
66484;BME280;53299;52.160;7.556;2022-10-24T16:15:24;100380.00;;;19.82;55.29
66484;BME280;53299;52.160;7.556;2022-10-24T16:17:51;100386.34;;;19.81;55.38
66484;BME280;53299;52.160;7.556;2022-10-24T16:20:16;100386.53;;;19.80;55.34
66484;BME280;53299;52.160;7.556;2022-10-24T16:22:42;100389.19;;;19.80;55.20
66484;BME280;53299;52.160;7.556;2022-10-24T16:25:19;100398.84;;;19.81;55.43
66484;BME280;53299;52.160;7.556;2022-10-24T16:27:45;100400.88;;;19.79;55.39
66484;BME280;53299;52.160;7.556;2022-10-24T16:30:11;100402.72;;;19.78;55.50
66484;BME280;53299;52.160;7.556;2022-10-24T16:32:37;100408.03;;;19.78;55.41
66484;BME280;53299;52.160;7.556;2022-10-24T16:35:02;100395.72;;;19.77;55.48
66484;BME280;53299;52.160;7.556;2022-10-24T16:37:27;100402.06;;;19.76;55.31
66484;BME280;53299;52.160;7.556;2022-10-24T16:39:53;100406.59;;;19.76;55.50
66484;BME280;53299;52.160;7.556;2022-10-24T16:42:18;100406.59;;;19.76;55.48
66484;BME280;53299;52.160;7.556;2022-10-24T16:44:43;100414.75;;;19.74;55.56
66484;BME280;53299;52.160;7.556;2022-10-24T16:47:09;100410.25;;;19.75;55.57
66484;BME280;53299;52.160;7.556;2022-10-24T16:49:34;100409.44;;;19.74;55.57
66484;BME280;53299;52.160;7.556;2022-10-24T16:51:59;100406.94;;;19.73;55.50
66484;BME280;53299;52.160;7.556;2022-10-24T16:54:25;100412.28;;;19.73;55.59
66484;BME280;53299;52.160;7.556;2022-10-24T16:56:50;100416.78;;;19.72;55.54
66484;BME280;53299;52.160;7.556;2022-10-24T16:59:15;100413.31;;;19.72;55.53
66484;BME280;53299;52.160;7.556;2022-10-24T17:01:41;100418.63;;;19.72;55.51
66484;BME280;53299;52.160;7.556;2022-10-24T17:04:07;100419.66;;;19.71;55.55
66484;BME280;53299;52.160;7.556;2022-10-24T17:06:32;100416.16;;;19.70;55.76
66484;BME280;53299;52.160;7.556;2022-10-24T17:08:58;100413.69;;;19.69;55.62
66484;BME280;53299;52.160;7.556;2022-10-24T17:11:23;100405.69;;;19.69;55.62
66484;BME280;53299;52.160;7.556;2022-10-24T17:13:48;100419.00;;;19.69;55.56
66484;BME280;53299;52.160;7.556;2022-10-24T17:16:13;100420.00;;;19.67;55.76
66484;BME280;53299;52.160;7.556;2022-10-24T17:18:39;100423.66;;;19.66;55.77
66484;BME280;53299;52.160;7.556;2022-10-24T17:21:04;100434.31;;;19.66;55.74
66484;BME280;53299;52.160;7.556;2022-10-24T17:23:30;100438.81;;;19.66;55.76
66484;BME280;53299;52.160;7.556;2022-10-24T17:25:55;100433.50;;;19.66;55.91
66484;BME280;53299;52.160;7.556;2022-10-24T17:28:20;100433.69;;;19.64;55.76
66484;BME280;53299;52.160;7.556;2022-10-24T17:30:46;100426.72;;;19.63;55.74
66484;BME280;53299;52.160;7.556;2022-10-24T17:33:12;100431.03;;;19.64;55.75
66484;BME280;53299;52.160;7.556;2022-10-24T17:35:41;100440.84;;;19.64;55.75
66484;BME280;53299;52.160;7.556;2022-10-24T17:40:47;100449.00;;;19.62;55.71
66484;BME280;53299;52.160;7.556;2022-10-24T17:45:44;100451.88;;;19.61;55.68
66484;BME280;53299;52.160;7.556;2022-10-24T17:48:10;100461.69;;;19.60;55.92
66484;BME280;53299;52.160;7.556;2022-10-24T17:50:35;100459.03;;;19.60;55.72
66484;BME280;53299;52.160;7.556;2022-10-24T17:53:01;100460.06;;;19.59;56.03
66484;BME280;53299;52.160;7.556;2022-10-24T17:55:26;100470.69;;;19.59;55.79
66484;BME280;53299;52.160;7.556;2022-10-24T17:57:51;100473.38;;;19.59;55.88
66484;BME280;53299;52.160;7.556;2022-10-24T18:00:17;100477.06;;;19.58;55.81
66484;BME280;53299;52.160;7.556;2022-10-24T18:02:47;100471.72;;;19.58;55.95
66484;BME280;53299;52.160;7.556;2022-10-24T18:05:13;100472.53;;;19.59;55.85
66484;BME280;53299;52.160;7.556;2022-10-24T18:07:38;100475.38;;;19.57;55.82
66484;BME280;53299;52.160;7.556;2022-10-24T18:10:04;100477.22;;;19.57;55.79
66484;BME280;53299;52.160;7.556;2022-10-24T18:12:31;100471.91;;;19.57;55.83
66484;BME280;53299;52.160;7.556;2022-10-24T18:14:57;100478.25;;;19.56;55.86
66484;BME280;53299;52.160;7.556;2022-10-24T18:17:22;100474.75;;;19.55;55.95
66484;BME280;53299;52.160;7.556;2022-10-24T18:19:47;100480.91;;;19.56;55.95
66484;BME280;53299;52.160;7.556;2022-10-24T18:22:12;100481.09;;;19.54;56.19
66484;BME280;53299;52.160;7.556;2022-10-24T18:24:38;100483.75;;;19.54;55.94
66484;BME280;53299;52.160;7.556;2022-10-24T18:27:03;100483.75;;;19.54;56.02
66484;BME280;53299;52.160;7.556;2022-10-24T18:29:28;100487.44;;;19.53;55.96
66484;BME280;53299;52.160;7.556;2022-10-24T18:31:53;100490.09;;;19.53;55.84
66484;BME280;53299;52.160;7.556;2022-10-24T18:34:19;100491.09;;;19.52;55.99
66484;BME280;53299;52.160;7.556;2022-10-24T18:36:44;100491.09;;;19.52;56.04
66484;BME280;53299;52.160;7.556;2022-10-24T18:39:09;100485.78;;;19.52;55.91
66484;BME280;53299;52.160;7.556;2022-10-24T18:41:41;100494.78;;;19.51;55.98
66484;BME280;53299;52.160;7.556;2022-10-24T18:44:29;100510.75;;;19.51;56.00
66484;BME280;53299;52.160;7.556;2022-10-24T18:46:59;100506.25;;;19.52;56.07
66484;BME280;53299;52.160;7.556;2022-10-24T18:49:24;100509.31;;;19.49;55.93
66484;BME280;53299;52.160;7.556;2022-10-24T18:54:35;100512.78;;;19.49;56.06
66484;BME280;53299;52.160;7.556;2022-10-24T18:57:01;100512.78;;;19.49;56.03
66484;BME280;53299;52.160;7.556;2022-10-24T18:59:26;100513.78;;;19.48;56.01
66484;BME280;53299;52.160;7.556;2022-10-24T19:04:40;100510.28;;;19.48;55.88
66484;BME280;53299;52.160;7.556;2022-10-24T19:07:07;100509.47;;;19.47;56.10
66484;BME280;53299;52.160;7.556;2022-10-24T19:09:33;100519.31;;;19.46;56.10
66484;BME280;53299;52.160;7.556;2022-10-24T19:11:58;100514.81;;;19.47;56.13
66484;BME280;53299;52.160;7.556;2022-10-24T19:14:24;100513.16;;;19.46;56.07
66484;BME280;53299;52.160;7.556;2022-10-24T19:16:50;100523.81;;;19.46;56.07
66484;BME280;53299;52.160;7.556;2022-10-24T19:19:25;100522.13;;;19.45;56.13
66484;BME280;53299;52.160;7.556;2022-10-24T19:21:51;100516.00;;;19.44;56.13
66484;BME280;53299;52.160;7.556;2022-10-24T19:24:17;100516.81;;;19.45;56.06
66484;BME280;53299;52.160;7.556;2022-10-24T19:26:42;100528.50;;;19.44;56.13
66484;BME280;53299;52.160;7.556;2022-10-24T19:29:07;100528.50;;;19.44;56.12
66484;BME280;53299;52.160;7.556;2022-10-24T19:31:32;100524.16;;;19.43;56.08
66484;BME280;53299;52.160;7.556;2022-10-24T19:33:58;100529.47;;;19.43;56.22
66484;BME280;53299;52.160;7.556;2022-10-24T19:36:23;100525.81;;;19.44;56.05
66484;BME280;53299;52.160;7.556;2022-10-24T19:38:53;100523.34;;;19.42;56.09
66484;BME280;53299;52.160;7.556;2022-10-24T19:41:18;100526.81;;;19.43;56.09
66484;BME280;53299;52.160;7.556;2022-10-24T19:43:44;100517.19;;;19.42;56.07
66484;BME280;53299;52.160;7.556;2022-10-24T19:46:09;100519.84;;;19.42;55.68
66484;BME280;53299;52.160;7.556;2022-10-24T19:48:34;100509.22;;;19.42;56.02
66484;BME280;53299;52.160;7.556;2022-10-24T19:51:06;100511.88;;;19.42;56.08
66484;BME280;53299;52.160;7.556;2022-10-24T19:53:33;100515.53;;;19.41;56.00
66484;BME280;53299;52.160;7.556;2022-10-24T19:56:03;100517.19;;;19.42;56.08
66484;BME280;53299;52.160;7.556;2022-10-24T19:58:29;100504.88;;;19.41;56.18
66484;BME280;53299;52.160;7.556;2022-10-24T20:01:02;100515.53;;;19.41;56.14
66484;BME280;53299;52.160;7.556;2022-10-24T20:03:28;100513.88;;;19.40;56.19
66484;BME280;53299;52.160;7.556;2022-10-24T20:05:57;100514.72;;;19.40;56.06
66484;BME280;53299;52.160;7.556;2022-10-24T20:08:22;100513.88;;;19.40;56.21
66484;BME280;53299;52.160;7.556;2022-10-24T20:10:51;100503.25;;;19.40;56.18
66484;BME280;53299;52.160;7.556;2022-10-24T20:13:17;100512.25;;;19.39;56.24
66484;BME280;53299;52.160;7.556;2022-10-24T20:15:42;100510.59;;;19.38;56.34
66484;BME280;53299;52.160;7.556;2022-10-24T20:18:08;100517.59;;;19.39;56.34
66484;BME280;53299;52.160;7.556;2022-10-24T20:20:34;100524.72;;;19.38;56.17
66484;BME280;53299;52.160;7.556;2022-10-24T20:23:00;100515.91;;;19.38;56.18
66484;BME280;53299;52.160;7.556;2022-10-24T20:25:25;100515.91;;;19.38;56.21
66484;BME280;53299;52.160;7.556;2022-10-24T20:27:50;100509.78;;;19.37;56.25
66484;BME280;53299;52.160;7.556;2022-10-24T20:30:16;100500.16;;;19.36;56.14
66484;BME280;53299;52.160;7.556;2022-10-24T20:32:41;100503.63;;;19.37;56.17
66484;BME280;53299;52.160;7.556;2022-10-24T20:35:07;100511.78;;;19.35;56.29
66484;BME280;53299;52.160;7.556;2022-10-24T20:37:32;100514.44;;;19.35;56.15
66484;BME280;53299;52.160;7.556;2022-10-24T20:39:57;100521.63;;;19.35;56.23
66484;BME280;53299;52.160;7.556;2022-10-24T20:42:22;100526.94;;;19.35;56.19
66484;BME280;53299;52.160;7.556;2022-10-24T20:44:48;100526.94;;;19.35;56.27
66484;BME280;53299;52.160;7.556;2022-10-24T20:47:13;100532.25;;;19.35;56.23
66484;BME280;53299;52.160;7.556;2022-10-24T20:49:38;100534.91;;;19.35;56.17
66484;BME280;53299;52.160;7.556;2022-10-24T20:52:04;100534.09;;;19.34;56.16
66484;BME280;53299;52.160;7.556;2022-10-24T20:54:29;100537.59;;;19.35;56.20
66484;BME280;53299;52.160;7.556;2022-10-24T20:56:54;100539.59;;;19.33;56.27
66484;BME280;53299;52.160;7.556;2022-10-24T20:59:19;100542.25;;;19.33;56.36
66484;BME280;53299;52.160;7.556;2022-10-24T21:01:45;100544.91;;;19.33;56.32
66484;BME280;53299;52.160;7.556;2022-10-24T21:04:10;100543.09;;;19.33;56.35
66484;BME280;53299;52.160;7.556;2022-10-24T21:06:35;100554.56;;;19.34;56.26
66484;BME280;53299;52.160;7.556;2022-10-24T21:09:03;100561.72;;;19.33;56.28
66484;BME280;53299;52.160;7.556;2022-10-24T21:11:30;100558.06;;;19.34;56.30
66484;BME280;53299;52.160;7.556;2022-10-24T21:14:08;100560.88;;;19.33;56.22
66484;BME280;53299;52.160;7.556;2022-10-24T21:16:34;100567.03;;;19.33;56.24
66484;BME280;53299;52.160;7.556;2022-10-24T21:19:00;100568.06;;;19.32;56.29
66484;BME280;53299;52.160;7.556;2022-10-24T21:21:25;100571.53;;;19.33;56.60
66484;BME280;53299;52.160;7.556;2022-10-24T21:23:52;100575.22;;;19.32;56.21
66484;BME280;53299;52.160;7.556;2022-10-24T21:26:18;100579.53;;;19.33;56.39
66484;BME280;53299;52.160;7.556;2022-10-24T21:28:44;100577.88;;;19.32;56.37
66484;BME280;53299;52.160;7.556;2022-10-24T21:31:14;100581.34;;;19.32;56.47
66484;BME280;53299;52.160;7.556;2022-10-24T21:33:40;100585.88;;;19.32;56.50
66484;BME280;53299;52.160;7.556;2022-10-24T21:36:14;100580.53;;;19.32;56.11
66484;BME280;53299;52.160;7.556;2022-10-24T21:38:41;100595.66;;;19.31;56.31
66484;BME280;53299;52.160;7.556;2022-10-24T21:41:08;100594.84;;;19.31;56.31
66484;BME280;53299;52.160;7.556;2022-10-24T21:43:35;100595.66;;;19.31;56.32
66484;BME280;53299;52.160;7.556;2022-10-24T21:46:02;100595.66;;;19.31;56.38
66484;BME280;53299;52.160;7.556;2022-10-24T21:48:28;100588.69;;;19.30;56.44
66484;BME280;53299;52.160;7.556;2022-10-24T21:50:54;100594.03;;;19.30;56.44
66484;BME280;53299;52.160;7.556;2022-10-24T21:53:19;100591.34;;;19.30;56.40
66484;BME280;53299;52.160;7.556;2022-10-24T21:55:44;100585.22;;;19.30;56.49
66484;BME280;53299;52.160;7.556;2022-10-24T21:58:09;100591.53;;;19.29;56.45
66484;BME280;53299;52.160;7.556;2022-10-24T22:00:35;100597.69;;;19.29;56.31
66484;BME280;53299;52.160;7.556;2022-10-24T22:03:00;100602.19;;;19.29;56.40
66484;BME280;53299;52.160;7.556;2022-10-24T22:05:25;100599.50;;;19.29;56.42
66484;BME280;53299;52.160;7.556;2022-10-24T22:07:50;100605.84;;;19.28;56.43
66484;BME280;53299;52.160;7.556;2022-10-24T22:10:16;100615.47;;;19.29;56.42
66484;BME280;53299;52.160;7.556;2022-10-24T22:12:41;100612.00;;;19.28;56.50
66484;BME280;53299;52.160;7.556;2022-10-24T22:15:06;100604.84;;;19.29;56.45
66484;BME280;53299;52.160;7.556;2022-10-24T22:17:32;100616.50;;;19.28;56.54
66484;BME280;53299;52.160;7.556;2022-10-24T22:19:57;100615.69;;;19.27;56.42
66484;BME280;53299;52.160;7.556;2022-10-24T22:22:22;100613.03;;;19.27;56.40
66484;BME280;53299;52.160;7.556;2022-10-24T22:24:47;100619.34;;;19.26;56.22
66484;BME280;53299;52.160;7.556;2022-10-24T22:27:13;100622.84;;;19.27;56.47
66484;BME280;53299;52.160;7.556;2022-10-24T22:29:38;100620.19;;;19.27;56.59
66484;BME280;53299;52.160;7.556;2022-10-24T22:32:03;100614.00;;;19.26;56.40
66484;BME280;53299;52.160;7.556;2022-10-24T22:34:29;100619.34;;;19.26;56.56
66484;BME280;53299;52.160;7.556;2022-10-24T22:39:41;100625.50;;;19.27;56.56
66484;BME280;53299;52.160;7.556;2022-10-24T22:42:08;100629.97;;;19.26;56.51
66484;BME280;53299;52.160;7.556;2022-10-24T22:44:34;100623.84;;;19.25;56.57
66484;BME280;53299;52.160;7.556;2022-10-24T22:49:44;100629.97;;;19.26;56.56
66484;BME280;53299;52.160;7.556;2022-10-24T22:52:16;100631.00;;;19.25;56.58
66484;BME280;53299;52.160;7.556;2022-10-24T22:54:41;100633.66;;;19.25;56.56
66484;BME280;53299;52.160;7.556;2022-10-24T22:57:07;100640.00;;;19.24;56.65
66484;BME280;53299;52.160;7.556;2022-10-24T22:59:33;100646.16;;;19.24;56.65
66484;BME280;53299;52.160;7.556;2022-10-24T23:02:04;100643.47;;;19.24;56.54
66484;BME280;53299;52.160;7.556;2022-10-24T23:04:35;100648.81;;;19.24;56.52
66484;BME280;53299;52.160;7.556;2022-10-24T23:09:36;100660.44;;;19.23;56.56
66484;BME280;53299;52.160;7.556;2022-10-24T23:12:09;100655.13;;;19.23;56.50
66484;BME280;53299;52.160;7.556;2022-10-24T23:14:36;100663.09;;;19.23;56.58
66484;BME280;53299;52.160;7.556;2022-10-24T23:17:01;100664.13;;;19.22;56.65
66484;BME280;53299;52.160;7.556;2022-10-24T23:19:29;100666.78;;;19.22;56.65
66484;BME280;53299;52.160;7.556;2022-10-24T23:21:55;100667.59;;;19.23;56.60
66484;BME280;53299;52.160;7.556;2022-10-24T23:24:21;100665.97;;;19.22;56.75
66484;BME280;53299;52.160;7.556;2022-10-24T23:29:32;100671.28;;;19.22;56.68
66484;BME280;53299;52.160;7.556;2022-10-24T23:31:58;100670.44;;;19.21;56.64
66484;BME280;53299;52.160;7.556;2022-10-24T23:34:24;100678.41;;;19.21;56.66
66484;BME280;53299;52.160;7.556;2022-10-24T23:36:52;100678.41;;;19.21;56.71
66484;BME280;53299;52.160;7.556;2022-10-24T23:39:18;100676.78;;;19.20;56.61
66484;BME280;53299;52.160;7.556;2022-10-24T23:41:44;100683.75;;;19.21;56.59
66484;BME280;53299;52.160;7.556;2022-10-24T23:44:10;100681.09;;;19.21;56.64
66484;BME280;53299;52.160;7.556;2022-10-24T23:47:00;100686.41;;;19.21;56.59
66484;BME280;53299;52.160;7.556;2022-10-24T23:49:41;100687.41;;;19.20;56.66
66484;BME280;53299;52.160;7.556;2022-10-24T23:54:49;100700.72;;;19.20;56.72
66484;BME280;53299;52.160;7.556;2022-10-24T23:57:17;100691.09;;;19.19;56.68
66484;BME280;53299;52.160;7.556;2022-10-24T23:59:43;100696.44;;;19.19;56.62
